Portada
METAR-TAF:

METAR-TAF

Aeropuertos :

Aeropuerto Internacional de Ahvaz

Ahvaz, Irán

latitud: 31-20N, longitud: 048-40E, altitud: 20 m

Observación

El informe se hizo hace 42 minutos, a las 05:30 UTC
Viento 4 kt del oeste-noroeste
Temperatura 13°C
Humedad 77%
Presión 1020 hPa
Visibilidad 10 km o más
sin nubes por debajo de 1500 m y sin presencia de cumulonimbus.

METAR: OIAW 270530Z 30004KT CAVOK 13/09 Q1020

Hora: 09:42 (06:12 UTC)

Pronóstico

El informe se hizo hace 7 horas y 12 minutos, a las 23:00 UTC
Pronóstico válido del 27 a las 00 UTC al 28 a las 06 UTC
Viento 8 kt del oeste-noroeste
Visibilidad: 7000 m
Escasas nubes a una altura de 3500 ft
Temporalmente
del 27 a las 06 UTC al 27 a las 15 UTC
Viento 18 kt del oeste-noroeste
Temporalmente
del 28 a las 00 UTC al 28 a las 06 UTC
Visibilidad: 3000 m
neblina

TAF: OIAW 262300Z 2700/2806 30008KT 7000 FEW035 TEMPO 2706/2715 30018KT TEMPO 2800/2806 3000 BR

Observaciones y pronósticos meteorológicos de más de 4000 aeropuertos (mensajes METAR y TAF).

Los puntos amarillos y rojos representan las estaciones disponibles.

Ponga el ratón en el punto deseado para ver el nombre de la estación.

Haga clic para ver las observaciones y los pronósticos meteorológicos.

Para cambiar el mapa : haga clic en los botones verdes con una cruz de color negro para hacer un zoom, en el botón verde con un guión para alejar o en las flechas verdes para mapas adyacentes.


METAR-TAF: